sensor_id;sensor_type;location;lat;lon;timestamp;P1;durP1;ratioP1;P2;durP2;ratioP2
12263;SDS011;6194;49.010;8.414;2023-03-31T00:01:48;5.30;;;2.20;;
12263;SDS011;6194;49.010;8.414;2023-03-31T00:04:16;7.20;;;2.13;;
12263;SDS011;6194;49.010;8.414;2023-03-31T00:06:42;4.23;;;2.00;;
12263;SDS011;6194;49.010;8.414;2023-03-31T00:09:09;4.00;;;2.00;;
12263;SDS011;6194;49.010;8.414;2023-03-31T00:11:37;6.63;;;2.40;;
12263;SDS011;6194;49.010;8.414;2023-03-31T00:14:03;6.73;;;2.20;;
12263;SDS011;6194;49.010;8.414;2023-03-31T00:16:31;6.00;;;2.07;;
12263;SDS011;6194;49.010;8.414;2023-03-31T00:19:01;3.90;;;1.90;;
12263;SDS011;6194;49.010;8.414;2023-03-31T00:21:27;4.43;;;2.27;;
12263;SDS011;6194;49.010;8.414;2023-03-31T00:24:04;6.60;;;2.27;;
12263;SDS011;6194;49.010;8.414;2023-03-31T00:26:31;5.67;;;2.03;;
12263;SDS011;6194;49.010;8.414;2023-03-31T00:28:58;3.80;;;2.20;;
12263;SDS011;6194;49.010;8.414;2023-03-31T00:31:24;5.00;;;2.20;;
12263;SDS011;6194;49.010;8.414;2023-03-31T00:33:51;3.87;;;1.83;;
12263;SDS011;6194;49.010;8.414;2023-03-31T00:36:18;4.90;;;2.20;;
12263;SDS011;6194;49.010;8.414;2023-03-31T00:38:51;7.73;;;2.40;;
12263;SDS011;6194;49.010;8.414;2023-03-31T00:41:18;5.63;;;2.20;;
12263;SDS011;6194;49.010;8.414;2023-03-31T00:46:49;4.87;;;2.53;;
12263;SDS011;6194;49.010;8.414;2023-03-31T00:49:40;5.80;;;2.80;;
12263;SDS011;6194;49.010;8.414;2023-03-31T00:52:19;3.67;;;2.20;;
12263;SDS011;6194;49.010;8.414;2023-03-31T00:54:48;3.33;;;2.40;;
12263;SDS011;6194;49.010;8.414;2023-03-31T00:57:18;6.13;;;2.33;;
12263;SDS011;6194;49.010;8.414;2023-03-31T00:59:48;3.80;;;2.20;;
12263;SDS011;6194;49.010;8.414;2023-03-31T01:02:17;4.77;;;2.33;;
12263;SDS011;6194;49.010;8.414;2023-03-31T01:04:47;7.67;;;2.50;;
12263;SDS011;6194;49.010;8.414;2023-03-31T01:07:30;4.23;;;2.00;;
12263;SDS011;6194;49.010;8.414;2023-03-31T01:10:03;5.23;;;1.80;;
12263;SDS011;6194;49.010;8.414;2023-03-31T01:12:31;4.10;;;1.70;;
12263;SDS011;6194;49.010;8.414;2023-03-31T01:14:58;3.93;;;1.87;;
12263;SDS011;6194;49.010;8.414;2023-03-31T01:17:25;3.80;;;2.00;;
12263;SDS011;6194;49.010;8.414;2023-03-31T01:20:05;4.73;;;2.13;;
12263;SDS011;6194;49.010;8.414;2023-03-31T01:25:23;4.90;;;2.00;;
12263;SDS011;6194;49.010;8.414;2023-03-31T01:28:07;5.33;;;2.30;;
12263;SDS011;6194;49.010;8.414;2023-03-31T01:44:26;2.67;;;1.83;;
12263;SDS011;6194;49.010;8.414;2023-03-31T01:47:04;6.57;;;2.03;;
12263;SDS011;6194;49.010;8.414;2023-03-31T01:52:44;6.00;;;2.30;;
12263;SDS011;6194;49.010;8.414;2023-03-31T02:00:40;3.87;;;2.17;;
12263;SDS011;6194;49.010;8.414;2023-03-31T02:03:13;4.93;;;2.20;;
12263;SDS011;6194;49.010;8.414;2023-03-31T02:05:44;4.27;;;2.30;;
12263;SDS011;6194;49.010;8.414;2023-03-31T02:08:17;7.80;;;2.40;;
12263;SDS011;6194;49.010;8.414;2023-03-31T02:10:52;4.33;;;2.33;;
12263;SDS011;6194;49.010;8.414;2023-03-31T02:13:19;10.20;;;2.50;;
12263;SDS011;6194;49.010;8.414;2023-03-31T02:15:49;7.30;;;2.30;;
12263;SDS011;6194;49.010;8.414;2023-03-31T02:18:20;5.50;;;2.70;;
12263;SDS011;6194;49.010;8.414;2023-03-31T02:20:50;4.30;;;2.37;;
12263;SDS011;6194;49.010;8.414;2023-03-31T02:23:18;5.63;;;3.07;;
12263;SDS011;6194;49.010;8.414;2023-03-31T02:25:48;6.40;;;2.73;;
12263;SDS011;6194;49.010;8.414;2023-03-31T02:28:18;6.57;;;2.77;;
12263;SDS011;6194;49.010;8.414;2023-03-31T02:31:04;9.40;;;3.23;;
12263;SDS011;6194;49.010;8.414;2023-03-31T02:33:43;6.17;;;2.40;;
12263;SDS011;6194;49.010;8.414;2023-03-31T02:36:08;6.33;;;2.70;;
12263;SDS011;6194;49.010;8.414;2023-03-31T02:38:36;4.93;;;2.60;;
12263;SDS011;6194;49.010;8.414;2023-03-31T02:41:07;9.67;;;3.17;;
12263;SDS011;6194;49.010;8.414;2023-03-31T02:43:33;7.27;;;2.70;;
12263;SDS011;6194;49.010;8.414;2023-03-31T02:45:59;6.90;;;2.93;;
12263;SDS011;6194;49.010;8.414;2023-03-31T02:48:25;6.37;;;2.80;;
12263;SDS011;6194;49.010;8.414;2023-03-31T03:05:10;9.07;;;3.33;;
12263;SDS011;6194;49.010;8.414;2023-03-31T03:13:08;8.90;;;3.90;;
12263;SDS011;6194;49.010;8.414;2023-03-31T03:15:59;10.20;;;3.43;;
12263;SDS011;6194;49.010;8.414;2023-03-31T03:18:30;7.60;;;3.27;;
12263;SDS011;6194;49.010;8.414;2023-03-31T03:20:55;7.23;;;3.23;;
12263;SDS011;6194;49.010;8.414;2023-03-31T03:23:21;7.43;;;3.17;;
12263;SDS011;6194;49.010;8.414;2023-03-31T03:25:47;7.77;;;3.50;;
12263;SDS011;6194;49.010;8.414;2023-03-31T03:28:13;6.07;;;3.10;;
12263;SDS011;6194;49.010;8.414;2023-03-31T03:30:38;7.53;;;3.30;;
12263;SDS011;6194;49.010;8.414;2023-03-31T03:33:04;7.93;;;3.60;;
12263;SDS011;6194;49.010;8.414;2023-03-31T03:35:31;7.03;;;3.23;;
12263;SDS011;6194;49.010;8.414;2023-03-31T03:37:57;7.07;;;3.10;;
12263;SDS011;6194;49.010;8.414;2023-03-31T03:40:22;9.77;;;3.37;;
12263;SDS011;6194;49.010;8.414;2023-03-31T03:42:48;6.13;;;3.10;;
12263;SDS011;6194;49.010;8.414;2023-03-31T03:45:14;6.70;;;3.10;;
12263;SDS011;6194;49.010;8.414;2023-03-31T03:47:39;6.87;;;3.20;;
12263;SDS011;6194;49.010;8.414;2023-03-31T03:50:05;7.73;;;3.20;;
12263;SDS011;6194;49.010;8.414;2023-03-31T03:52:31;7.20;;;3.33;;
12263;SDS011;6194;49.010;8.414;2023-03-31T03:54:57;6.60;;;3.17;;
12263;SDS011;6194;49.010;8.414;2023-03-31T03:57:22;6.40;;;3.23;;
12263;SDS011;6194;49.010;8.414;2023-03-31T03:59:48;6.40;;;3.30;;
12263;SDS011;6194;49.010;8.414;2023-03-31T04:02:13;7.20;;;3.00;;
12263;SDS011;6194;49.010;8.414;2023-03-31T04:04:39;6.30;;;3.03;;
12263;SDS011;6194;49.010;8.414;2023-03-31T04:07:05;5.63;;;3.13;;
12263;SDS011;6194;49.010;8.414;2023-03-31T04:09:30;6.70;;;3.33;;
12263;SDS011;6194;49.010;8.414;2023-03-31T04:11:56;4.73;;;2.97;;
12263;SDS011;6194;49.010;8.414;2023-03-31T04:14:21;4.73;;;3.17;;
12263;SDS011;6194;49.010;8.414;2023-03-31T04:16:48;5.23;;;2.83;;
12263;SDS011;6194;49.010;8.414;2023-03-31T04:19:13;7.87;;;3.43;;
12263;SDS011;6194;49.010;8.414;2023-03-31T04:21:41;7.70;;;3.30;;
12263;SDS011;6194;49.010;8.414;2023-03-31T04:24:09;6.07;;;3.07;;
12263;SDS011;6194;49.010;8.414;2023-03-31T04:26:40;6.53;;;3.10;;
12263;SDS011;6194;49.010;8.414;2023-03-31T04:29:12;5.90;;;3.00;;
12263;SDS011;6194;49.010;8.414;2023-03-31T04:31:44;7.33;;;3.27;;
12263;SDS011;6194;49.010;8.414;2023-03-31T04:34:11;5.80;;;2.83;;
12263;SDS011;6194;49.010;8.414;2023-03-31T04:36:42;7.00;;;3.10;;
12263;SDS011;6194;49.010;8.414;2023-03-31T04:39:11;6.47;;;3.20;;
12263;SDS011;6194;49.010;8.414;2023-03-31T04:41:38;5.63;;;3.53;;
12263;SDS011;6194;49.010;8.414;2023-03-31T04:44:04;6.77;;;3.10;;
12263;SDS011;6194;49.010;8.414;2023-03-31T04:46:30;7.70;;;3.20;;
12263;SDS011;6194;49.010;8.414;2023-03-31T04:48:57;8.10;;;4.50;;
12263;SDS011;6194;49.010;8.414;2023-03-31T04:51:23;5.30;;;3.33;;
12263;SDS011;6194;49.010;8.414;2023-03-31T04:53:49;6.40;;;3.70;;
12263;SDS011;6194;49.010;8.414;2023-03-31T04:56:14;7.47;;;3.70;;
12263;SDS011;6194;49.010;8.414;2023-03-31T04:58:40;8.60;;;3.80;;
12263;SDS011;6194;49.010;8.414;2023-03-31T05:01:06;5.57;;;3.20;;
12263;SDS011;6194;49.010;8.414;2023-03-31T05:03:31;6.37;;;3.37;;
12263;SDS011;6194;49.010;8.414;2023-03-31T05:05:58;6.17;;;3.00;;
12263;SDS011;6194;49.010;8.414;2023-03-31T05:08:23;5.33;;;3.57;;
12263;SDS011;6194;49.010;8.414;2023-03-31T05:10:51;7.00;;;3.97;;
12263;SDS011;6194;49.010;8.414;2023-03-31T05:13:16;9.40;;;3.93;;
12263;SDS011;6194;49.010;8.414;2023-03-31T05:15:42;6.60;;;3.77;;
12263;SDS011;6194;49.010;8.414;2023-03-31T05:18:09;8.33;;;4.07;;
12263;SDS011;6194;49.010;8.414;2023-03-31T05:20:35;7.97;;;3.90;;
12263;SDS011;6194;49.010;8.414;2023-03-31T05:23:00;8.93;;;4.40;;
12263;SDS011;6194;49.010;8.414;2023-03-31T05:25:26;8.70;;;4.10;;
12263;SDS011;6194;49.010;8.414;2023-03-31T05:27:56;9.77;;;3.87;;
12263;SDS011;6194;49.010;8.414;2023-03-31T05:30:23;9.97;;;4.50;;
12263;SDS011;6194;49.010;8.414;2023-03-31T05:32:50;9.03;;;4.10;;
12263;SDS011;6194;49.010;8.414;2023-03-31T05:35:16;12.07;;;4.17;;
12263;SDS011;6194;49.010;8.414;2023-03-31T05:37:42;7.33;;;4.30;;
12263;SDS011;6194;49.010;8.414;2023-03-31T05:40:08;9.07;;;4.27;;
12263;SDS011;6194;49.010;8.414;2023-03-31T05:42:34;8.93;;;4.37;;
12263;SDS011;6194;49.010;8.414;2023-03-31T05:45:00;8.47;;;4.47;;
12263;SDS011;6194;49.010;8.414;2023-03-31T05:47:26;11.83;;;4.97;;
12263;SDS011;6194;49.010;8.414;2023-03-31T05:49:51;9.23;;;4.97;;
12263;SDS011;6194;49.010;8.414;2023-03-31T05:52:17;8.60;;;4.70;;
12263;SDS011;6194;49.010;8.414;2023-03-31T05:54:43;10.10;;;5.00;;
12263;SDS011;6194;49.010;8.414;2023-03-31T05:57:08;10.97;;;5.10;;
12263;SDS011;6194;49.010;8.414;2023-03-31T05:59:34;11.93;;;5.70;;
12263;SDS011;6194;49.010;8.414;2023-03-31T06:02:03;8.13;;;5.30;;
12263;SDS011;6194;49.010;8.414;2023-03-31T06:04:29;8.97;;;5.23;;
12263;SDS011;6194;49.010;8.414;2023-03-31T06:06:56;9.50;;;5.70;;
12263;SDS011;6194;49.010;8.414;2023-03-31T06:09:23;10.03;;;5.37;;
12263;SDS011;6194;49.010;8.414;2023-03-31T06:11:49;9.20;;;5.53;;
12263;SDS011;6194;49.010;8.414;2023-03-31T06:14:14;9.97;;;5.60;;
12263;SDS011;6194;49.010;8.414;2023-03-31T06:16:40;12.53;;;6.20;;
12263;SDS011;6194;49.010;8.414;2023-03-31T06:19:05;11.43;;;6.47;;
12263;SDS011;6194;49.010;8.414;2023-03-31T06:21:31;12.03;;;6.00;;
12263;SDS011;6194;49.010;8.414;2023-03-31T06:23:57;12.90;;;6.23;;
12263;SDS011;6194;49.010;8.414;2023-03-31T06:26:24;11.97;;;6.00;;
12263;SDS011;6194;49.010;8.414;2023-03-31T06:28:51;12.03;;;5.73;;
12263;SDS011;6194;49.010;8.414;2023-03-31T06:31:18;9.87;;;6.30;;
12263;SDS011;6194;49.010;8.414;2023-03-31T06:33:45;10.67;;;6.60;;
12263;SDS011;6194;49.010;8.414;2023-03-31T06:36:12;12.00;;;6.37;;
12263;SDS011;6194;49.010;8.414;2023-03-31T06:38:40;12.87;;;6.93;;
12263;SDS011;6194;49.010;8.414;2023-03-31T06:41:06;11.20;;;6.83;;
12263;SDS011;6194;49.010;8.414;2023-03-31T06:43:33;11.37;;;7.17;;
12263;SDS011;6194;49.010;8.414;2023-03-31T06:45:59;11.50;;;6.83;;
12263;SDS011;6194;49.010;8.414;2023-03-31T06:48:26;12.97;;;7.07;;
12263;SDS011;6194;49.010;8.414;2023-03-31T06:50:52;12.60;;;7.40;;
12263;SDS011;6194;49.010;8.414;2023-03-31T06:53:18;10.30;;;6.00;;
12263;SDS011;6194;49.010;8.414;2023-03-31T06:55:44;11.47;;;6.13;;
12263;SDS011;6194;49.010;8.414;2023-03-31T06:58:09;11.27;;;6.03;;
12263;SDS011;6194;49.010;8.414;2023-03-31T07:00:36;10.20;;;5.67;;
12263;SDS011;6194;49.010;8.414;2023-03-31T07:03:02;9.60;;;5.40;;
12263;SDS011;6194;49.010;8.414;2023-03-31T07:05:28;9.53;;;5.33;;
12263;SDS011;6194;49.010;8.414;2023-03-31T07:07:55;12.40;;;5.67;;
12263;SDS011;6194;49.010;8.414;2023-03-31T07:10:22;12.40;;;5.20;;
12263;SDS011;6194;49.010;8.414;2023-03-31T07:12:50;12.43;;;5.20;;
12263;SDS011;6194;49.010;8.414;2023-03-31T07:15:16;5.57;;;4.30;;
12263;SDS011;6194;49.010;8.414;2023-03-31T07:17:43;8.17;;;4.57;;
12263;SDS011;6194;49.010;8.414;2023-03-31T07:20:09;8.07;;;3.77;;
12263;SDS011;6194;49.010;8.414;2023-03-31T07:22:40;5.63;;;3.60;;
12263;SDS011;6194;49.010;8.414;2023-03-31T07:25:07;6.10;;;2.90;;
12263;SDS011;6194;49.010;8.414;2023-03-31T07:27:33;5.00;;;2.63;;
12263;SDS011;6194;49.010;8.414;2023-03-31T07:29:59;3.83;;;2.67;;
12263;SDS011;6194;49.010;8.414;2023-03-31T07:32:25;3.20;;;2.40;;
12263;SDS011;6194;49.010;8.414;2023-03-31T07:34:51;5.27;;;2.50;;
12263;SDS011;6194;49.010;8.414;2023-03-31T07:37:16;3.97;;;2.10;;
12263;SDS011;6194;49.010;8.414;2023-03-31T07:39:42;3.30;;;2.00;;
12263;SDS011;6194;49.010;8.414;2023-03-31T07:42:07;2.10;;;1.83;;
12263;SDS011;6194;49.010;8.414;2023-03-31T07:44:33;3.03;;;2.20;;
12263;SDS011;6194;49.010;8.414;2023-03-31T07:47:00;2.80;;;2.13;;
12263;SDS011;6194;49.010;8.414;2023-03-31T07:49:28;2.47;;;1.90;;
12263;SDS011;6194;49.010;8.414;2023-03-31T07:51:55;2.90;;;1.80;;
12263;SDS011;6194;49.010;8.414;2023-03-31T07:54:21;5.60;;;2.20;;
12263;SDS011;6194;49.010;8.414;2023-03-31T07:56:46;3.17;;;1.97;;
12263;SDS011;6194;49.010;8.414;2023-03-31T07:59:12;4.27;;;2.10;;
12263;SDS011;6194;49.010;8.414;2023-03-31T08:01:38;2.03;;;1.73;;
12263;SDS011;6194;49.010;8.414;2023-03-31T08:04:03;5.97;;;2.27;;
12263;SDS011;6194;49.010;8.414;2023-03-31T08:06:29;2.63;;;2.10;;
12263;SDS011;6194;49.010;8.414;2023-03-31T08:08:55;3.20;;;2.10;;
12263;SDS011;6194;49.010;8.414;2023-03-31T08:11:21;2.90;;;1.83;;
12263;SDS011;6194;49.010;8.414;2023-03-31T08:13:48;3.83;;;2.23;;
12263;SDS011;6194;49.010;8.414;2023-03-31T08:16:14;2.67;;;1.90;;
12263;SDS011;6194;49.010;8.414;2023-03-31T08:18:39;3.20;;;1.88;;
12263;SDS011;6194;49.010;8.414;2023-03-31T08:21:05;3.40;;;1.88;;
12263;SDS011;6194;49.010;8.414;2023-03-31T08:23:31;1.73;;;1.50;;
12263;SDS011;6194;49.010;8.414;2023-03-31T08:26:13;3.20;;;1.73;;
12263;SDS011;6194;49.010;8.414;2023-03-31T08:28:42;2.87;;;1.93;;
12263;SDS011;6194;49.010;8.414;2023-03-31T08:31:08;3.10;;;1.80;;
12263;SDS011;6194;49.010;8.414;2023-03-31T08:33:34;2.70;;;1.90;;
12263;SDS011;6194;49.010;8.414;2023-03-31T08:36:04;4.50;;;2.23;;
12263;SDS011;6194;49.010;8.414;2023-03-31T08:38:34;2.97;;;2.00;;
12263;SDS011;6194;49.010;8.414;2023-03-31T08:41:02;4.43;;;2.30;;
12263;SDS011;6194;49.010;8.414;2023-03-31T08:43:35;2.40;;;1.90;;
12263;SDS011;6194;49.010;8.414;2023-03-31T08:46:09;4.43;;;2.13;;
12263;SDS011;6194;49.010;8.414;2023-03-31T08:48:41;1.90;;;1.77;;
12263;SDS011;6194;49.010;8.414;2023-03-31T08:54:01;3.53;;;1.97;;
12263;SDS011;6194;49.010;8.414;2023-03-31T08:56:37;2.73;;;2.00;;
12263;SDS011;6194;49.010;8.414;2023-03-31T08:59:12;4.35;;;2.28;;
12263;SDS011;6194;49.010;8.414;2023-03-31T09:07:22;3.33;;;2.10;;
12263;SDS011;6194;49.010;8.414;2023-03-31T09:10:38;4.35;;;1.90;;
12263;SDS011;6194;49.010;8.414;2023-03-31T09:15:28;3.78;;;2.20;;
12263;SDS011;6194;49.010;8.414;2023-03-31T09:18:24;5.70;;;2.15;;
12263;SDS011;6194;49.010;8.414;2023-03-31T09:24:05;4.57;;;2.15;;
12263;SDS011;6194;49.010;8.414;2023-03-31T09:26:50;3.17;;;2.05;;
12263;SDS011;6194;49.010;8.414;2023-03-31T09:31:51;3.83;;;2.30;;
12263;SDS011;6194;49.010;8.414;2023-03-31T09:34:26;4.63;;;2.00;;
12263;SDS011;6194;49.010;8.414;2023-03-31T09:36:55;3.83;;;1.90;;
12263;SDS011;6194;49.010;8.414;2023-03-31T09:39:20;5.45;;;2.17;;
12263;SDS011;6194;49.010;8.414;2023-03-31T09:41:47;5.35;;;2.50;;
12263;SDS011;6194;49.010;8.414;2023-03-31T09:44:20;5.00;;;2.30;;
12263;SDS011;6194;49.010;8.414;2023-03-31T09:46:49;4.72;;;2.63;;
12263;SDS011;6194;49.010;8.414;2023-03-31T09:49:17;5.78;;;2.55;;
12263;SDS011;6194;49.010;8.414;2023-03-31T09:51:47;6.15;;;2.53;;
12263;SDS011;6194;49.010;8.414;2023-03-31T09:54:25;6.32;;;2.90;;
12263;SDS011;6194;49.010;8.414;2023-03-31T09:57:13;6.40;;;2.60;;
12263;SDS011;6194;49.010;8.414;2023-03-31T09:59:51;7.60;;;2.55;;
12263;SDS011;6194;49.010;8.414;2023-03-31T10:02:23;7.25;;;2.80;;
12263;SDS011;6194;49.010;8.414;2023-03-31T10:05:02;4.57;;;2.40;;
12263;SDS011;6194;49.010;8.414;2023-03-31T10:07:29;8.38;;;2.83;;
12263;SDS011;6194;49.010;8.414;2023-03-31T10:09:55;6.90;;;2.45;;
12263;SDS011;6194;49.010;8.414;2023-03-31T10:12:22;7.57;;;2.90;;
12263;SDS011;6194;49.010;8.414;2023-03-31T10:14:52;5.68;;;2.50;;
12263;SDS011;6194;49.010;8.414;2023-03-31T10:17:22;5.22;;;2.60;;
12263;SDS011;6194;49.010;8.414;2023-03-31T10:22:30;4.38;;;2.47;;
12263;SDS011;6194;49.010;8.414;2023-03-31T10:25:09;5.07;;;2.33;;
12263;SDS011;6194;49.010;8.414;2023-03-31T10:27:46;6.35;;;2.60;;
12263;SDS011;6194;49.010;8.414;2023-03-31T10:30:22;6.85;;;3.13;;
12263;SDS011;6194;49.010;8.414;2023-03-31T10:32:54;6.78;;;2.50;;
12263;SDS011;6194;49.010;8.414;2023-03-31T10:38:03;5.75;;;2.80;;
12263;SDS011;6194;49.010;8.414;2023-03-31T10:40:34;6.95;;;2.47;;
12263;SDS011;6194;49.010;8.414;2023-03-31T10:45:37;9.23;;;3.10;;
12263;SDS011;6194;49.010;8.414;2023-03-31T10:48:16;10.25;;;2.95;;
12263;SDS011;6194;49.010;8.414;2023-03-31T10:50:48;5.97;;;2.88;;
12263;SDS011;6194;49.010;8.414;2023-03-31T10:53:14;7.20;;;2.80;;
12263;SDS011;6194;49.010;8.414;2023-03-31T10:58:46;3.72;;;2.17;;
12263;SDS011;6194;49.010;8.414;2023-03-31T11:12:27;2.30;;;1.60;;
12263;SDS011;6194;49.010;8.414;2023-03-31T11:18:38;1.90;;;1.20;;
12263;SDS011;6194;49.010;8.414;2023-03-31T11:21:23;1.57;;;1.47;;
12263;SDS011;6194;49.010;8.414;2023-03-31T11:24:04;1.77;;;1.10;;
12263;SDS011;6194;49.010;8.414;2023-03-31T11:42:35;1.13;;;1.02;;
12263;SDS011;6194;49.010;8.414;2023-03-31T11:45:25;1.73;;;1.20;;
12263;SDS011;6194;49.010;8.414;2023-03-31T11:47:57;2.53;;;1.08;;
12263;SDS011;6194;49.010;8.414;2023-03-31T11:50:28;2.38;;;1.30;;
12263;SDS011;6194;49.010;8.414;2023-03-31T11:53:06;2.17;;;1.33;;
12263;SDS011;6194;49.010;8.414;2023-03-31T11:55:40;1.58;;;1.17;;
12263;SDS011;6194;49.010;8.414;2023-03-31T11:58:10;1.63;;;1.17;;
12263;SDS011;6194;49.010;8.414;2023-03-31T12:00:48;2.92;;;1.60;;
12263;SDS011;6194;49.010;8.414;2023-03-31T12:03:31;2.05;;;1.30;;
12263;SDS011;6194;49.010;8.414;2023-03-31T12:06:27;3.55;;;1.80;;
12263;SDS011;6194;49.010;8.414;2023-03-31T12:17:16;2.05;;;1.35;;
12263;SDS011;6194;49.010;8.414;2023-03-31T12:19:47;2.03;;;1.35;;
12263;SDS011;6194;49.010;8.414;2023-03-31T12:25:01;2.13;;;1.25;;
12263;SDS011;6194;49.010;8.414;2023-03-31T12:30:03;1.40;;;1.20;;
12263;SDS011;6194;49.010;8.414;2023-03-31T12:32:39;1.88;;;1.45;;
12263;SDS011;6194;49.010;8.414;2023-03-31T12:35:15;2.20;;;1.60;;
12263;SDS011;6194;49.010;8.414;2023-03-31T12:37:56;2.45;;;1.70;;
12263;SDS011;6194;49.010;8.414;2023-03-31T12:48:45;1.50;;;1.40;;
12263;SDS011;6194;49.010;8.414;2023-03-31T12:51:36;2.13;;;1.38;;
12263;SDS011;6194;49.010;8.414;2023-03-31T12:57:18;4.10;;;1.60;;
12263;SDS011;6194;49.010;8.414;2023-03-31T13:02:36;2.30;;;1.20;;
12263;SDS011;6194;49.010;8.414;2023-03-31T13:05:46;2.78;;;1.35;;
12263;SDS011;6194;49.010;8.414;2023-03-31T13:08:05;2.65;;;1.45;;
12263;SDS011;6194;49.010;8.414;2023-03-31T13:10:33;2.55;;;1.65;;
12263;SDS011;6194;49.010;8.414;2023-03-31T13:13:17;2.38;;;1.60;;
12263;SDS011;6194;49.010;8.414;2023-03-31T13:15:53;2.40;;;1.70;;
12263;SDS011;6194;49.010;8.414;2023-03-31T13:18:22;1.45;;;1.20;;
12263;SDS011;6194;49.010;8.414;2023-03-31T13:21:01;2.63;;;1.40;;
12263;SDS011;6194;49.010;8.414;2023-03-31T13:23:30;1.90;;;1.52;;
12263;SDS011;6194;49.010;8.414;2023-03-31T13:25:59;1.95;;;1.55;;
12263;SDS011;6194;49.010;8.414;2023-03-31T13:28:46;1.85;;;1.42;;
12263;SDS011;6194;49.010;8.414;2023-03-31T13:31:59;3.30;;;1.48;;
12263;SDS011;6194;49.010;8.414;2023-03-31T13:37:17;4.85;;;1.75;;
12263;SDS011;6194;49.010;8.414;2023-03-31T13:42:52;4.68;;;1.65;;
12263;SDS011;6194;49.010;8.414;2023-03-31T14:05:44;7.65;;;2.60;;
12263;SDS011;6194;49.010;8.414;2023-03-31T14:11:19;4.25;;;1.58;;
12263;SDS011;6194;49.010;8.414;2023-03-31T14:16:37;1.67;;;1.40;;
12263;SDS011;6194;49.010;8.414;2023-03-31T14:24:43;4.43;;;1.80;;
12263;SDS011;6194;49.010;8.414;2023-03-31T14:27:44;1.65;;;1.20;;
12263;SDS011;6194;49.010;8.414;2023-03-31T14:38:43;4.10;;;1.92;;
12263;SDS011;6194;49.010;8.414;2023-03-31T14:41:14;1.27;;;1.17;;
12263;SDS011;6194;49.010;8.414;2023-03-31T14:43:45;1.35;;;0.90;;
12263;SDS011;6194;49.010;8.414;2023-03-31T14:46:17;3.70;;;1.37;;
12263;SDS011;6194;49.010;8.414;2023-03-31T14:48:45;1.42;;;1.20;;
12263;SDS011;6194;49.010;8.414;2023-03-31T14:51:13;1.85;;;1.40;;
12263;SDS011;6194;49.010;8.414;2023-03-31T14:53:40;1.77;;;1.40;;
12263;SDS011;6194;49.010;8.414;2023-03-31T14:56:11;1.88;;;1.25;;
12263;SDS011;6194;49.010;8.414;2023-03-31T14:58:41;1.67;;;1.20;;
12263;SDS011;6194;49.010;8.414;2023-03-31T15:01:13;1.65;;;1.40;;
12263;SDS011;6194;49.010;8.414;2023-03-31T15:03:43;3.13;;;1.70;;
12263;SDS011;6194;49.010;8.414;2023-03-31T15:06:10;1.83;;;1.60;;
12263;SDS011;6194;49.010;8.414;2023-03-31T15:08:35;3.03;;;1.80;;
12263;SDS011;6194;49.010;8.414;2023-03-31T15:11:04;4.70;;;1.58;;
12263;SDS011;6194;49.010;8.414;2023-03-31T15:18:56;3.27;;;1.67;;
12263;SDS011;6194;49.010;8.414;2023-03-31T15:21:24;2.53;;;1.70;;
12263;SDS011;6194;49.010;8.414;2023-03-31T15:23:52;4.17;;;2.10;;
12263;SDS011;6194;49.010;8.414;2023-03-31T15:26:20;4.07;;;2.00;;
12263;SDS011;6194;49.010;8.414;2023-03-31T15:28:54;5.60;;;1.70;;
12263;SDS011;6194;49.010;8.414;2023-03-31T15:31:33;2.30;;;1.80;;
12263;SDS011;6194;49.010;8.414;2023-03-31T15:33:59;2.90;;;1.83;;
12263;SDS011;6194;49.010;8.414;2023-03-31T15:36:38;2.83;;;1.67;;
12263;SDS011;6194;49.010;8.414;2023-03-31T15:39:03;4.97;;;2.10;;
12263;SDS011;6194;49.010;8.414;2023-03-31T15:41:30;2.67;;;2.13;;
12263;SDS011;6194;49.010;8.414;2023-03-31T15:44:04;3.33;;;1.60;;
12263;SDS011;6194;49.010;8.414;2023-03-31T15:49:03;3.37;;;1.60;;
12263;SDS011;6194;49.010;8.414;2023-03-31T15:51:35;2.27;;;1.53;;
12263;SDS011;6194;49.010;8.414;2023-03-31T15:54:02;2.50;;;1.30;;
12263;SDS011;6194;49.010;8.414;2023-03-31T15:56:29;2.47;;;1.37;;
12263;SDS011;6194;49.010;8.414;2023-03-31T15:59:03;2.07;;;1.40;;
12263;SDS011;6194;49.010;8.414;2023-03-31T16:01:30;2.20;;;1.53;;
12263;SDS011;6194;49.010;8.414;2023-03-31T16:03:59;2.80;;;1.90;;
12263;SDS011;6194;49.010;8.414;2023-03-31T16:09:18;3.03;;;1.70;;
12263;SDS011;6194;49.010;8.414;2023-03-31T16:12:19;3.80;;;2.77;;
12263;SDS011;6194;49.010;8.414;2023-03-31T16:14:58;2.20;;;1.60;;
12263;SDS011;6194;49.010;8.414;2023-03-31T16:17:30;1.80;;;1.60;;
12263;SDS011;6194;49.010;8.414;2023-03-31T16:20:02;3.87;;;1.70;;
12263;SDS011;6194;49.010;8.414;2023-03-31T16:22:33;2.83;;;1.70;;
12263;SDS011;6194;49.010;8.414;2023-03-31T16:25:07;2.27;;;2.00;;
12263;SDS011;6194;49.010;8.414;2023-03-31T16:27:45;2.07;;;1.27;;
12263;SDS011;6194;49.010;8.414;2023-03-31T16:30:16;1.47;;;1.37;;
12263;SDS011;6194;49.010;8.414;2023-03-31T16:35:32;2.63;;;2.07;;
12263;SDS011;6194;49.010;8.414;2023-03-31T16:37:59;2.63;;;1.23;;
12263;SDS011;6194;49.010;8.414;2023-03-31T16:40:26;2.37;;;1.30;;
12263;SDS011;6194;49.010;8.414;2023-03-31T16:45:56;2.63;;;1.40;;
12263;SDS011;6194;49.010;8.414;2023-03-31T16:48:24;2.43;;;1.50;;
12263;SDS011;6194;49.010;8.414;2023-03-31T16:50:52;3.33;;;1.40;;
12263;SDS011;6194;49.010;8.414;2023-03-31T16:53:21;4.83;;;2.00;;
12263;SDS011;6194;49.010;8.414;2023-03-31T16:55:48;4.23;;;1.90;;
12263;SDS011;6194;49.010;8.414;2023-03-31T16:58:14;2.70;;;1.93;;
12263;SDS011;6194;49.010;8.414;2023-03-31T17:00:40;3.10;;;1.57;;
12263;SDS011;6194;49.010;8.414;2023-03-31T17:03:07;2.87;;;2.10;;
12263;SDS011;6194;49.010;8.414;2023-03-31T17:05:38;4.40;;;2.43;;
12263;SDS011;6194;49.010;8.414;2023-03-31T17:08:05;4.47;;;1.97;;
12263;SDS011;6194;49.010;8.414;2023-03-31T17:10:32;2.20;;;1.60;;
12263;SDS011;6194;49.010;8.414;2023-03-31T17:12:58;5.67;;;1.97;;
12263;SDS011;6194;49.010;8.414;2023-03-31T17:15:24;3.90;;;2.60;;
12263;SDS011;6194;49.010;8.414;2023-03-31T17:17:50;3.93;;;2.10;;
12263;SDS011;6194;49.010;8.414;2023-03-31T17:20:16;4.50;;;1.80;;
12263;SDS011;6194;49.010;8.414;2023-03-31T17:22:42;4.40;;;2.00;;
12263;SDS011;6194;49.010;8.414;2023-03-31T17:25:08;2.50;;;1.40;;
12263;SDS011;6194;49.010;8.414;2023-03-31T17:27:34;2.57;;;1.30;;
12263;SDS011;6194;49.010;8.414;2023-03-31T17:30:00;3.03;;;2.07;;
12263;SDS011;6194;49.010;8.414;2023-03-31T17:32:25;2.83;;;2.10;;
12263;SDS011;6194;49.010;8.414;2023-03-31T17:34:51;3.93;;;1.60;;
12263;SDS011;6194;49.010;8.414;2023-03-31T17:37:17;5.07;;;2.00;;
12263;SDS011;6194;49.010;8.414;2023-03-31T17:39:43;2.83;;;1.50;;
12263;SDS011;6194;49.010;8.414;2023-03-31T17:42:09;3.13;;;1.60;;
12263;SDS011;6194;49.010;8.414;2023-03-31T17:44:37;4.20;;;1.70;;
12263;SDS011;6194;49.010;8.414;2023-03-31T17:47:03;2.17;;;1.27;;
12263;SDS011;6194;49.010;8.414;2023-03-31T17:49:28;2.60;;;1.67;;
12263;SDS011;6194;49.010;8.414;2023-03-31T17:51:54;3.57;;;1.70;;
12263;SDS011;6194;49.010;8.414;2023-03-31T17:54:20;4.37;;;2.47;;
12263;SDS011;6194;49.010;8.414;2023-03-31T17:56:45;4.87;;;2.60;;
12263;SDS011;6194;49.010;8.414;2023-03-31T17:59:14;4.37;;;2.73;;
12263;SDS011;6194;49.010;8.414;2023-03-31T18:01:40;2.53;;;1.93;;
12263;SDS011;6194;49.010;8.414;2023-03-31T18:04:06;3.07;;;2.13;;
12263;SDS011;6194;49.010;8.414;2023-03-31T18:06:31;4.53;;;2.60;;
12263;SDS011;6194;49.010;8.414;2023-03-31T18:08:57;5.63;;;3.13;;
12263;SDS011;6194;49.010;8.414;2023-03-31T18:11:23;5.87;;;3.20;;
12263;SDS011;6194;49.010;8.414;2023-03-31T18:13:48;6.07;;;2.90;;
12263;SDS011;6194;49.010;8.414;2023-03-31T18:16:15;5.53;;;2.47;;
12263;SDS011;6194;49.010;8.414;2023-03-31T18:18:41;5.60;;;2.53;;
12263;SDS011;6194;49.010;8.414;2023-03-31T18:21:09;4.23;;;2.30;;
12263;SDS011;6194;49.010;8.414;2023-03-31T18:23:37;6.37;;;2.40;;
12263;SDS011;6194;49.010;8.414;2023-03-31T18:26:06;6.77;;;2.80;;
12263;SDS011;6194;49.010;8.414;2023-03-31T18:28:33;6.00;;;3.57;;
12263;SDS011;6194;49.010;8.414;2023-03-31T18:31:05;4.63;;;3.20;;
12263;SDS011;6194;49.010;8.414;2023-03-31T18:33:32;4.83;;;2.80;;